Accueil
METAR-TAF:

METAR-TAF

Aéroports :

Odiham, Angleterre

latitude: 51-14N, longitude: 000-57W, altitude: 123 m

Observation

Le bulletin a été fait il y a 34 minutes, à 05:50 UTC
Vent 5 kt de ouest
Température 6°C
Humidité 87%
Pression 1036 hPa
Visibilité 10 km ou plus
pas de nuages en-dessous de 1500 mètres et pas de cumulonimbus.

METAR: EGVO 240550Z 28005KT CAVOK 06/04 Q1036 BLU

Heure: 07:24 (06:24 UTC)

Prévision

Le bulletin a été fait il y a 1 heure et 52 minutes, à 04:32 UTC
Prévision valable du 24 à 06 UTC au 24 à 18 UTC
Vent 8 kt de nord/nord-ouest
Visibilité 10 km ou plus
Quelques nuages à une hauteur de 3000 ft

TAF: EGVO 240432Z 2406/2418 33008KT 9999 FEW030

Observations et prévisions météorologiques de plus de 4000 aéroports (messages METAR et TAF).

Les stations disponibles sont représentées par des disques jaunes et rouges sur la carte.

Passer la souris dessus pour voir le nom de la station.

Cliquer dessus pour voir les observations et prévisions météorologiques.

Pour changer de carte: cliquez sur les boutons verts avec une croix noire pour zoomer, sur le bouton vert avec un tiret pour effectuer un zoom arrière, ou sur les flèches vertes pour les cartes adjacentes.


METAR-TAF: